sensor_id;sensor_type;location;lat;lon;timestamp;P1;durP1;ratioP1;P2;durP2;ratioP2
36009;SDS011;22076;52.182;5.404;2023-11-21T00:01:42;49.65;;;23.38;;
36009;SDS011;22076;52.182;5.404;2023-11-21T00:04:10;46.83;;;18.67;;
36009;SDS011;22076;52.182;5.404;2023-11-21T00:06:37;49.65;;;23.05;;
36009;SDS011;22076;52.182;5.404;2023-11-21T00:09:04;37.03;;;17.17;;
36009;SDS011;22076;52.182;5.404;2023-11-21T00:11:33;45.10;;;18.70;;
36009;SDS011;22076;52.182;5.404;2023-11-21T00:13:59;38.80;;;16.10;;
36009;SDS011;22076;52.182;5.404;2023-11-21T00:16:26;46.05;;;18.95;;
36009;SDS011;22076;52.182;5.404;2023-11-21T00:18:52;62.72;;;24.73;;
36009;SDS011;22076;52.182;5.404;2023-11-21T00:21:20;42.47;;;17.10;;
36009;SDS011;22076;52.182;5.404;2023-11-21T00:23:48;63.63;;;24.27;;
36009;SDS011;22076;52.182;5.404;2023-11-21T00:26:14;38.20;;;16.25;;
36009;SDS011;22076;52.182;5.404;2023-11-21T00:28:41;39.28;;;16.65;;
36009;SDS011;22076;52.182;5.404;2023-11-21T00:31:07;33.53;;;15.80;;
36009;SDS011;22076;52.182;5.404;2023-11-21T00:33:33;29.23;;;14.60;;
36009;SDS011;22076;52.182;5.404;2023-11-21T00:35:59;43.97;;;18.95;;
36009;SDS011;22076;52.182;5.404;2023-11-21T00:38:28;45.17;;;19.08;;
36009;SDS011;22076;52.182;5.404;2023-11-21T00:40:55;36.80;;;15.15;;
36009;SDS011;22076;52.182;5.404;2023-11-21T00:43:21;51.60;;;21.70;;
36009;SDS011;22076;52.182;5.404;2023-11-21T00:45:48;41.03;;;17.15;;
36009;SDS011;22076;52.182;5.404;2023-11-21T00:48:15;55.03;;;22.13;;
36009;SDS011;22076;52.182;5.404;2023-11-21T00:50:41;52.38;;;21.33;;
36009;SDS011;22076;52.182;5.404;2023-11-21T00:53:08;33.17;;;15.77;;
36009;SDS011;22076;52.182;5.404;2023-11-21T00:55:36;57.95;;;21.90;;
36009;SDS011;22076;52.182;5.404;2023-11-21T00:58:05;51.05;;;22.83;;
36009;SDS011;22076;52.182;5.404;2023-11-21T01:00:32;59.75;;;23.90;;
36009;SDS011;22076;52.182;5.404;2023-11-21T01:02:58;45.28;;;19.23;;
36009;SDS011;22076;52.182;5.404;2023-11-21T01:05:25;29.40;;;12.05;;
36009;SDS011;22076;52.182;5.404;2023-11-21T01:07:53;46.38;;;20.00;;
36009;SDS011;22076;52.182;5.404;2023-11-21T01:10:19;57.78;;;22.27;;
36009;SDS011;22076;52.182;5.404;2023-11-21T01:12:47;60.72;;;23.25;;
36009;SDS011;22076;52.182;5.404;2023-11-21T01:15:14;48.75;;;19.98;;
36009;SDS011;22076;52.182;5.404;2023-11-21T01:17:40;45.78;;;17.95;;
36009;SDS011;22076;52.182;5.404;2023-11-21T01:20:08;35.53;;;14.75;;
36009;SDS011;22076;52.182;5.404;2023-11-21T01:22:37;51.22;;;22.67;;
36009;SDS011;22076;52.182;5.404;2023-11-21T01:25:04;47.42;;;15.68;;
36009;SDS011;22076;52.182;5.404;2023-11-21T01:27:35;40.85;;;15.65;;
36009;SDS011;22076;52.182;5.404;2023-11-21T01:30:03;35.30;;;15.85;;
36009;SDS011;22076;52.182;5.404;2023-11-21T01:32:32;45.45;;;18.65;;
36009;SDS011;22076;52.182;5.404;2023-11-21T01:34:59;46.30;;;16.92;;
36009;SDS011;22076;52.182;5.404;2023-11-21T01:37:26;22.58;;;9.50;;
36009;SDS011;22076;52.182;5.404;2023-11-21T01:39:52;41.55;;;16.15;;
36009;SDS011;22076;52.182;5.404;2023-11-21T01:42:20;51.35;;;21.20;;
36009;SDS011;22076;52.182;5.404;2023-11-21T01:44:46;47.65;;;20.27;;
36009;SDS011;22076;52.182;5.404;2023-11-21T01:47:14;34.03;;;16.08;;
36009;SDS011;22076;52.182;5.404;2023-11-21T01:49:43;38.30;;;14.55;;
36009;SDS011;22076;52.182;5.404;2023-11-21T01:52:10;38.42;;;13.10;;
36009;SDS011;22076;52.182;5.404;2023-11-21T01:54:37;31.60;;;14.27;;
36009;SDS011;22076;52.182;5.404;2023-11-21T01:57:04;21.65;;;9.65;;
36009;SDS011;22076;52.182;5.404;2023-11-21T01:59:33;39.15;;;16.50;;
36009;SDS011;22076;52.182;5.404;2023-11-21T02:02:01;38.78;;;13.43;;
36009;SDS011;22076;52.182;5.404;2023-11-21T02:04:32;41.13;;;15.40;;
36009;SDS011;22076;52.182;5.404;2023-11-21T02:07:00;44.97;;;18.95;;
36009;SDS011;22076;52.182;5.404;2023-11-21T02:09:27;29.75;;;11.98;;
36009;SDS011;22076;52.182;5.404;2023-11-21T02:11:55;42.83;;;17.10;;
36009;SDS011;22076;52.182;5.404;2023-11-21T02:16:53;47.45;;;19.00;;
36009;SDS011;22076;52.182;5.404;2023-11-21T02:19:21;46.50;;;18.05;;
36009;SDS011;22076;52.182;5.404;2023-11-21T02:21:52;27.77;;;11.82;;
36009;SDS011;22076;52.182;5.404;2023-11-21T02:24:21;46.70;;;17.92;;
36009;SDS011;22076;52.182;5.404;2023-11-21T02:26:48;47.30;;;18.25;;
36009;SDS011;22076;52.182;5.404;2023-11-21T02:29:16;23.35;;;9.55;;
36009;SDS011;22076;52.182;5.404;2023-11-21T02:31:43;47.38;;;18.35;;
36009;SDS011;22076;52.182;5.404;2023-11-21T02:34:14;24.77;;;10.52;;
36009;SDS011;22076;52.182;5.404;2023-11-21T02:36:41;21.88;;;8.95;;
36009;SDS011;22076;52.182;5.404;2023-11-21T02:39:08;19.88;;;8.15;;
36009;SDS011;22076;52.182;5.404;2023-11-21T02:41:37;33.88;;;14.20;;
36009;SDS011;22076;52.182;5.404;2023-11-21T02:44:04;42.97;;;15.95;;
36009;SDS011;22076;52.182;5.404;2023-11-21T02:46:31;30.30;;;12.35;;
36009;SDS011;22076;52.182;5.404;2023-11-21T02:48:59;36.47;;;14.88;;
36009;SDS011;22076;52.182;5.404;2023-11-21T02:51:25;18.30;;;9.43;;
36009;SDS011;22076;52.182;5.404;2023-11-21T02:53:52;22.20;;;10.27;;
36009;SDS011;22076;52.182;5.404;2023-11-21T02:56:19;20.70;;;8.93;;
36009;SDS011;22076;52.182;5.404;2023-11-21T02:58:49;19.42;;;9.48;;
36009;SDS011;22076;52.182;5.404;2023-11-21T03:01:15;14.80;;;7.53;;
36009;SDS011;22076;52.182;5.404;2023-11-21T03:03:42;27.67;;;12.57;;
36009;SDS011;22076;52.182;5.404;2023-11-21T03:06:08;38.42;;;14.20;;
36009;SDS011;22076;52.182;5.404;2023-11-21T03:08:35;25.10;;;12.10;;
36009;SDS011;22076;52.182;5.404;2023-11-21T03:11:01;23.90;;;11.70;;
36009;SDS011;22076;52.182;5.404;2023-11-21T03:13:30;21.80;;;9.10;;
36009;SDS011;22076;52.182;5.404;2023-11-21T03:15:57;28.40;;;10.15;;
36009;SDS011;22076;52.182;5.404;2023-11-21T03:18:24;35.25;;;13.50;;
36009;SDS011;22076;52.182;5.404;2023-11-21T03:20:52;32.13;;;14.90;;
36009;SDS011;22076;52.182;5.404;2023-11-21T03:23:19;24.88;;;11.30;;
36009;SDS011;22076;52.182;5.404;2023-11-21T03:25:45;34.03;;;11.85;;
36009;SDS011;22076;52.182;5.404;2023-11-21T03:28:12;25.35;;;9.63;;
36009;SDS011;22076;52.182;5.404;2023-11-21T03:30:38;20.98;;;9.00;;
36009;SDS011;22076;52.182;5.404;2023-11-21T03:33:06;22.50;;;8.98;;
36009;SDS011;22076;52.182;5.404;2023-11-21T03:35:33;23.55;;;9.32;;
36009;SDS011;22076;52.182;5.404;2023-11-21T03:37:59;22.30;;;8.98;;
36009;SDS011;22076;52.182;5.404;2023-11-21T03:40:26;20.88;;;9.05;;
36009;SDS011;22076;52.182;5.404;2023-11-21T03:42:53;15.57;;;6.45;;
36009;SDS011;22076;52.182;5.404;2023-11-21T03:45:20;21.92;;;9.35;;
36009;SDS011;22076;52.182;5.404;2023-11-21T03:47:46;16.15;;;7.93;;
36009;SDS011;22076;52.182;5.404;2023-11-21T03:50:14;27.08;;;11.15;;
36009;SDS011;22076;52.182;5.404;2023-11-21T03:52:41;26.65;;;9.73;;
36009;SDS011;22076;52.182;5.404;2023-11-21T03:55:08;38.90;;;12.23;;
36009;SDS011;22076;52.182;5.404;2023-11-21T03:57:35;20.75;;;9.15;;
36009;SDS011;22076;52.182;5.404;2023-11-21T04:00:02;19.63;;;7.72;;
36009;SDS011;22076;52.182;5.404;2023-11-21T04:02:33;21.75;;;8.35;;
36009;SDS011;22076;52.182;5.404;2023-11-21T04:05:06;17.27;;;7.82;;
36009;SDS011;22076;52.182;5.404;2023-11-21T04:07:34;17.88;;;8.40;;
36009;SDS011;22076;52.182;5.404;2023-11-21T04:10:02;18.08;;;8.65;;
36009;SDS011;22076;52.182;5.404;2023-11-21T04:12:30;9.68;;;5.43;;
36009;SDS011;22076;52.182;5.404;2023-11-21T04:14:56;22.65;;;8.68;;
36009;SDS011;22076;52.182;5.404;2023-11-21T04:17:23;11.23;;;5.68;;
36009;SDS011;22076;52.182;5.404;2023-11-21T04:19:49;13.07;;;6.88;;
36009;SDS011;22076;52.182;5.404;2023-11-21T04:22:16;25.50;;;11.13;;
36009;SDS011;22076;52.182;5.404;2023-11-21T04:24:44;18.35;;;7.25;;
36009;SDS011;22076;52.182;5.404;2023-11-21T04:27:10;11.65;;;5.97;;
36009;SDS011;22076;52.182;5.404;2023-11-21T04:29:38;31.95;;;10.10;;
36009;SDS011;22076;52.182;5.404;2023-11-21T04:32:04;17.23;;;8.45;;
36009;SDS011;22076;52.182;5.404;2023-11-21T04:34:31;30.42;;;13.20;;
36009;SDS011;22076;52.182;5.404;2023-11-21T04:36:58;29.60;;;11.43;;
36009;SDS011;22076;52.182;5.404;2023-11-21T04:39:25;32.08;;;12.57;;
36009;SDS011;22076;52.182;5.404;2023-11-21T04:41:53;17.67;;;6.60;;
36009;SDS011;22076;52.182;5.404;2023-11-21T04:44:20;16.58;;;7.10;;
36009;SDS011;22076;52.182;5.404;2023-11-21T04:46:46;11.98;;;5.60;;
36009;SDS011;22076;52.182;5.404;2023-11-21T04:49:13;35.05;;;12.55;;
36009;SDS011;22076;52.182;5.404;2023-11-21T04:51:40;35.78;;;14.25;;
36009;SDS011;22076;52.182;5.404;2023-11-21T04:54:06;24.90;;;9.23;;
36009;SDS011;22076;52.182;5.404;2023-11-21T04:56:34;20.38;;;9.73;;
36009;SDS011;22076;52.182;5.404;2023-11-21T04:59:02;24.48;;;10.45;;
36009;SDS011;22076;52.182;5.404;2023-11-21T05:01:29;21.83;;;8.35;;
36009;SDS011;22076;52.182;5.404;2023-11-21T05:03:56;23.98;;;10.27;;
36009;SDS011;22076;52.182;5.404;2023-11-21T05:06:23;24.08;;;9.88;;
36009;SDS011;22076;52.182;5.404;2023-11-21T05:08:49;15.35;;;7.72;;
36009;SDS011;22076;52.182;5.404;2023-11-21T05:11:23;28.27;;;12.57;;
36009;SDS011;22076;52.182;5.404;2023-11-21T05:13:50;17.58;;;7.47;;
36009;SDS011;22076;52.182;5.404;2023-11-21T05:16:18;34.53;;;16.38;;
36009;SDS011;22076;52.182;5.404;2023-11-21T05:18:45;17.52;;;7.47;;
36009;SDS011;22076;52.182;5.404;2023-11-21T05:21:11;16.85;;;7.97;;
36009;SDS011;22076;52.182;5.404;2023-11-21T05:23:38;32.08;;;9.95;;
36009;SDS011;22076;52.182;5.404;2023-11-21T05:26:05;19.25;;;9.05;;
36009;SDS011;22076;52.182;5.404;2023-11-21T05:28:31;29.15;;;12.70;;
36009;SDS011;22076;52.182;5.404;2023-11-21T05:30:58;33.30;;;14.60;;
36009;SDS011;22076;52.182;5.404;2023-11-21T05:33:26;20.55;;;9.48;;
36009;SDS011;22076;52.182;5.404;2023-11-21T05:35:54;21.30;;;8.73;;
36009;SDS011;22076;52.182;5.404;2023-11-21T05:38:21;18.83;;;7.88;;
36009;SDS011;22076;52.182;5.404;2023-11-21T05:40:47;26.08;;;11.88;;
36009;SDS011;22076;52.182;5.404;2023-11-21T05:43:14;30.77;;;12.40;;
36009;SDS011;22076;52.182;5.404;2023-11-21T05:45:42;26.33;;;11.10;;
36009;SDS011;22076;52.182;5.404;2023-11-21T05:50:41;15.32;;;8.00;;
36009;SDS011;22076;52.182;5.404;2023-11-21T05:53:08;30.50;;;12.80;;
36009;SDS011;22076;52.182;5.404;2023-11-21T05:55:37;23.27;;;9.32;;
36009;SDS011;22076;52.182;5.404;2023-11-21T05:58:04;23.85;;;9.68;;
36009;SDS011;22076;52.182;5.404;2023-11-21T06:00:31;17.58;;;7.88;;
36009;SDS011;22076;52.182;5.404;2023-11-21T06:02:58;21.20;;;9.48;;
36009;SDS011;22076;52.182;5.404;2023-11-21T06:05:25;33.63;;;13.60;;
36009;SDS011;22076;52.182;5.404;2023-11-21T06:07:54;24.30;;;11.00;;
36009;SDS011;22076;52.182;5.404;2023-11-21T06:10:23;21.23;;;10.15;;
36009;SDS011;22076;52.182;5.404;2023-11-21T06:12:50;19.98;;;8.43;;
36009;SDS011;22076;52.182;5.404;2023-11-21T06:15:17;32.88;;;14.68;;
36009;SDS011;22076;52.182;5.404;2023-11-21T06:17:46;22.83;;;9.05;;
36009;SDS011;22076;52.182;5.404;2023-11-21T06:20:17;23.75;;;7.97;;
36009;SDS011;22076;52.182;5.404;2023-11-21T06:22:44;17.42;;;9.35;;
36009;SDS011;22076;52.182;5.404;2023-11-21T06:27:43;34.33;;;12.70;;
36009;SDS011;22076;52.182;5.404;2023-11-21T06:30:11;24.17;;;10.25;;
36009;SDS011;22076;52.182;5.404;2023-11-21T06:32:40;21.60;;;9.32;;
36009;SDS011;22076;52.182;5.404;2023-11-21T06:35:10;20.55;;;10.32;;
36009;SDS011;22076;52.182;5.404;2023-11-21T06:37:38;18.17;;;7.00;;
36009;SDS011;22076;52.182;5.404;2023-11-21T06:40:05;20.10;;;10.07;;
36009;SDS011;22076;52.182;5.404;2023-11-21T06:42:35;17.75;;;9.30;;
36009;SDS011;22076;52.182;5.404;2023-11-21T06:45:02;19.63;;;9.13;;
36009;SDS011;22076;52.182;5.404;2023-11-21T06:47:29;22.60;;;10.63;;
36009;SDS011;22076;52.182;5.404;2023-11-21T06:49:56;15.05;;;7.53;;
36009;SDS011;22076;52.182;5.404;2023-11-21T06:52:22;17.98;;;9.10;;
36009;SDS011;22076;52.182;5.404;2023-11-21T06:54:49;17.55;;;9.13;;
36009;SDS011;22076;52.182;5.404;2023-11-21T06:57:15;18.42;;;8.25;;
36009;SDS011;22076;52.182;5.404;2023-11-21T06:59:43;28.25;;;10.70;;
36009;SDS011;22076;52.182;5.404;2023-11-21T07:02:10;29.30;;;9.98;;
36009;SDS011;22076;52.182;5.404;2023-11-21T07:04:37;31.65;;;13.15;;
36009;SDS011;22076;52.182;5.404;2023-11-21T07:07:03;16.08;;;7.50;;
36009;SDS011;22076;52.182;5.404;2023-11-21T07:09:32;17.15;;;7.50;;
36009;SDS011;22076;52.182;5.404;2023-11-21T07:11:58;12.80;;;6.72;;
36009;SDS011;22076;52.182;5.404;2023-11-21T07:14:24;13.55;;;6.43;;
36009;SDS011;22076;52.182;5.404;2023-11-21T07:16:52;11.80;;;6.30;;
36009;SDS011;22076;52.182;5.404;2023-11-21T07:19:19;12.70;;;6.47;;
36009;SDS011;22076;52.182;5.404;2023-11-21T07:21:46;17.50;;;8.82;;
36009;SDS011;22076;52.182;5.404;2023-11-21T07:24:15;14.73;;;7.93;;
36009;SDS011;22076;52.182;5.404;2023-11-21T07:26:42;13.68;;;6.05;;
36009;SDS011;22076;52.182;5.404;2023-11-21T07:29:09;25.92;;;10.18;;
36009;SDS011;22076;52.182;5.404;2023-11-21T07:31:36;13.77;;;5.97;;
36009;SDS011;22076;52.182;5.404;2023-11-21T07:34:04;12.35;;;6.28;;
36009;SDS011;22076;52.182;5.404;2023-11-21T07:36:31;22.20;;;8.18;;
36009;SDS011;22076;52.182;5.404;2023-11-21T07:38:57;25.17;;;7.90;;
36009;SDS011;22076;52.182;5.404;2023-11-21T07:41:24;14.50;;;7.13;;
36009;SDS011;22076;52.182;5.404;2023-11-21T07:43:50;26.50;;;9.90;;
36009;SDS011;22076;52.182;5.404;2023-11-21T07:46:17;17.55;;;7.78;;
36009;SDS011;22076;52.182;5.404;2023-11-21T07:48:45;26.08;;;7.43;;
36009;SDS011;22076;52.182;5.404;2023-11-21T07:51:13;16.98;;;6.70;;
36009;SDS011;22076;52.182;5.404;2023-11-21T07:53:39;14.63;;;6.65;;
36009;SDS011;22076;52.182;5.404;2023-11-21T07:56:07;13.93;;;6.10;;
36009;SDS011;22076;52.182;5.404;2023-11-21T07:58:34;24.52;;;9.20;;
36009;SDS011;22076;52.182;5.404;2023-11-21T08:01:01;18.67;;;7.50;;
36009;SDS011;22076;52.182;5.404;2023-11-21T08:03:28;24.70;;;8.85;;
36009;SDS011;22076;52.182;5.404;2023-11-21T08:05:55;18.17;;;7.28;;
36009;SDS011;22076;52.182;5.404;2023-11-21T08:08:24;24.17;;;8.30;;
36009;SDS011;22076;52.182;5.404;2023-11-21T08:10:51;26.20;;;8.55;;
36009;SDS011;22076;52.182;5.404;2023-11-21T08:13:21;18.67;;;7.00;;
36009;SDS011;22076;52.182;5.404;2023-11-21T08:15:48;18.55;;;8.25;;
36009;SDS011;22076;52.182;5.404;2023-11-21T08:18:14;16.55;;;6.55;;
36009;SDS011;22076;52.182;5.404;2023-11-21T08:20:42;19.38;;;7.32;;
36009;SDS011;22076;52.182;5.404;2023-11-21T08:23:09;23.55;;;7.95;;
36009;SDS011;22076;52.182;5.404;2023-11-21T08:25:36;20.58;;;7.50;;
36009;SDS011;22076;52.182;5.404;2023-11-21T08:28:03;19.00;;;7.68;;
36009;SDS011;22076;52.182;5.404;2023-11-21T08:30:30;20.63;;;7.15;;
36009;SDS011;22076;52.182;5.404;2023-11-21T08:32:57;19.45;;;6.93;;
36009;SDS011;22076;52.182;5.404;2023-11-21T08:35:25;19.15;;;7.03;;
36009;SDS011;22076;52.182;5.404;2023-11-21T08:37:52;20.67;;;7.93;;
36009;SDS011;22076;52.182;5.404;2023-11-21T08:40:18;16.48;;;7.45;;
36009;SDS011;22076;52.182;5.404;2023-11-21T08:42:47;15.73;;;7.15;;
36009;SDS011;22076;52.182;5.404;2023-11-21T08:45:14;28.88;;;9.80;;
36009;SDS011;22076;52.182;5.404;2023-11-21T08:47:42;29.58;;;10.32;;
36009;SDS011;22076;52.182;5.404;2023-11-21T08:50:10;39.83;;;10.65;;
36009;SDS011;22076;52.182;5.404;2023-11-21T08:52:37;17.08;;;7.25;;
36009;SDS011;22076;52.182;5.404;2023-11-21T08:55:04;38.35;;;12.43;;
36009;SDS011;22076;52.182;5.404;2023-11-21T08:57:32;31.27;;;12.20;;
36009;SDS011;22076;52.182;5.404;2023-11-21T09:00:01;41.28;;;11.00;;
36009;SDS011;22076;52.182;5.404;2023-11-21T09:02:28;54.20;;;14.30;;
36009;SDS011;22076;52.182;5.404;2023-11-21T09:04:54;32.13;;;10.75;;
36009;SDS011;22076;52.182;5.404;2023-11-21T09:07:21;47.65;;;12.07;;
36009;SDS011;22076;52.182;5.404;2023-11-21T09:09:48;62.38;;;17.88;;
36009;SDS011;22076;52.182;5.404;2023-11-21T09:12:15;40.63;;;14.02;;
36009;SDS011;22076;52.182;5.404;2023-11-21T09:14:44;58.83;;;16.98;;
36009;SDS011;22076;52.182;5.404;2023-11-21T09:17:12;41.53;;;13.77;;
36009;SDS011;22076;52.182;5.404;2023-11-21T09:19:39;68.55;;;18.63;;
36009;SDS011;22076;52.182;5.404;2023-11-21T09:22:06;59.47;;;17.88;;
36009;SDS011;22076;52.182;5.404;2023-11-21T09:24:33;67.43;;;19.73;;
36009;SDS011;22076;52.182;5.404;2023-11-21T09:27:00;58.78;;;17.75;;
36009;SDS011;22076;52.182;5.404;2023-11-21T09:29:27;47.60;;;14.48;;
36009;SDS011;22076;52.182;5.404;2023-11-21T09:31:54;53.38;;;15.80;;
36009;SDS011;22076;52.182;5.404;2023-11-21T09:34:25;39.55;;;13.98;;
36009;SDS011;22076;52.182;5.404;2023-11-21T09:36:52;46.45;;;13.23;;
36009;SDS011;22076;52.182;5.404;2023-11-21T09:39:19;52.63;;;14.60;;
36009;SDS011;22076;52.182;5.404;2023-11-21T09:41:46;32.50;;;12.20;;
36009;SDS011;22076;52.182;5.404;2023-11-21T09:44:17;41.35;;;13.32;;
36009;SDS011;22076;52.182;5.404;2023-11-21T09:46:47;45.25;;;14.18;;
36009;SDS011;22076;52.182;5.404;2023-11-21T09:49:14;37.63;;;13.38;;
36009;SDS011;22076;52.182;5.404;2023-11-21T09:51:46;53.75;;;16.58;;
36009;SDS011;22076;52.182;5.404;2023-11-21T09:54:14;44.83;;;16.80;;
36009;SDS011;22076;52.182;5.404;2023-11-21T09:56:42;44.30;;;13.30;;
36009;SDS011;22076;52.182;5.404;2023-11-21T09:59:10;39.45;;;12.98;;
36009;SDS011;22076;52.182;5.404;2023-11-21T10:01:41;42.05;;;13.27;;
36009;SDS011;22076;52.182;5.404;2023-11-21T10:04:08;45.58;;;13.75;;
36009;SDS011;22076;52.182;5.404;2023-11-21T10:06:37;41.72;;;15.23;;
36009;SDS011;22076;52.182;5.404;2023-11-21T10:09:07;39.95;;;14.35;;
36009;SDS011;22076;52.182;5.404;2023-11-21T10:11:37;48.30;;;14.73;;
36009;SDS011;22076;52.182;5.404;2023-11-21T10:14:07;40.97;;;13.75;;
36009;SDS011;22076;52.182;5.404;2023-11-21T10:16:35;36.53;;;12.90;;
36009;SDS011;22076;52.182;5.404;2023-11-21T10:19:03;33.42;;;10.45;;
36009;SDS011;22076;52.182;5.404;2023-11-21T10:21:31;35.08;;;11.60;;
36009;SDS011;22076;52.182;5.404;2023-11-21T10:23:59;35.08;;;11.65;;
36009;SDS011;22076;52.182;5.404;2023-11-21T10:26:27;46.03;;;15.32;;
36009;SDS011;22076;52.182;5.404;2023-11-21T10:28:57;48.28;;;15.32;;
36009;SDS011;22076;52.182;5.404;2023-11-21T10:31:23;39.55;;;13.07;;
36009;SDS011;22076;52.182;5.404;2023-11-21T10:33:50;43.47;;;13.40;;
36009;SDS011;22076;52.182;5.404;2023-11-21T10:36:24;48.15;;;14.18;;
36009;SDS011;22076;52.182;5.404;2023-11-21T10:38:52;40.60;;;13.45;;
36009;SDS011;22076;52.182;5.404;2023-11-21T10:41:19;35.83;;;12.82;;
36009;SDS011;22076;52.182;5.404;2023-11-21T10:43:47;38.88;;;13.65;;
36009;SDS011;22076;52.182;5.404;2023-11-21T10:46:15;44.72;;;15.40;;
36009;SDS011;22076;52.182;5.404;2023-11-21T10:48:43;31.55;;;11.93;;
36009;SDS011;22076;52.182;5.404;2023-11-21T10:51:09;36.42;;;14.07;;
36009;SDS011;22076;52.182;5.404;2023-11-21T10:53:38;46.25;;;15.93;;
36009;SDS011;22076;52.182;5.404;2023-11-21T10:56:06;40.17;;;14.60;;
36009;SDS011;22076;52.182;5.404;2023-11-21T10:58:35;46.63;;;15.48;;
36009;SDS011;22076;52.182;5.404;2023-11-21T11:01:05;45.05;;;17.23;;
36009;SDS011;22076;52.182;5.404;2023-11-21T11:03:32;40.80;;;15.35;;
36009;SDS011;22076;52.182;5.404;2023-11-21T11:06:02;41.70;;;15.30;;
36009;SDS011;22076;52.182;5.404;2023-11-21T11:08:32;46.17;;;16.67;;
36009;SDS011;22076;52.182;5.404;2023-11-21T11:11:02;38.25;;;14.60;;
36009;SDS011;22076;52.182;5.404;2023-11-21T11:13:29;43.63;;;16.88;;
36009;SDS011;22076;52.182;5.404;2023-11-21T11:15:58;39.92;;;14.05;;
36009;SDS011;22076;52.182;5.404;2023-11-21T11:18:28;34.38;;;14.40;;
36009;SDS011;22076;52.182;5.404;2023-11-21T11:20:56;34.05;;;14.15;;
36009;SDS011;22076;52.182;5.404;2023-11-21T11:23:36;31.70;;;15.50;;
36009;SDS011;22076;52.182;5.404;2023-11-21T11:26:15;35.45;;;14.63;;
36009;SDS011;22076;52.182;5.404;2023-11-21T11:28:51;28.83;;;11.98;;
36009;SDS011;22076;52.182;5.404;2023-11-21T11:31:33;31.83;;;13.40;;
36009;SDS011;22076;52.182;5.404;2023-11-21T11:34:14;36.80;;;15.38;;
36009;SDS011;22076;52.182;5.404;2023-11-21T11:36:48;29.63;;;12.73;;
36009;SDS011;22076;52.182;5.404;2023-11-21T11:39:26;40.05;;;17.08;;
36009;SDS011;22076;52.182;5.404;2023-11-21T11:41:53;35.58;;;14.50;;
36009;SDS011;22076;52.182;5.404;2023-11-21T11:47:19;39.90;;;15.23;;
36009;SDS011;22076;52.182;5.404;2023-11-21T11:49:58;37.45;;;16.73;;
36009;SDS011;22076;52.182;5.404;2023-11-21T11:52:32;33.80;;;14.68;;
36009;SDS011;22076;52.182;5.404;2023-11-21T11:55:03;41.38;;;15.25;;
36009;SDS011;22076;52.182;5.404;2023-11-21T11:57:32;33.53;;;15.07;;
36009;SDS011;22076;52.182;5.404;2023-11-21T12:00:13;40.15;;;16.48;;
36009;SDS011;22076;52.182;5.404;2023-11-21T12:02:50;41.95;;;14.73;;
36009;SDS011;22076;52.182;5.404;2023-11-21T12:05:19;36.10;;;14.82;;
36009;SDS011;22076;52.182;5.404;2023-11-21T12:07:48;37.53;;;14.57;;
36009;SDS011;22076;52.182;5.404;2023-11-21T12:10:18;43.33;;;16.25;;
36009;SDS011;22076;52.182;5.404;2023-11-21T12:12:46;43.35;;;17.58;;
36009;SDS011;22076;52.182;5.404;2023-11-21T12:15:13;43.33;;;20.05;;
36009;SDS011;22076;52.182;5.404;2023-11-21T12:17:40;46.13;;;17.30;;
36009;SDS011;22076;52.182;5.404;2023-11-21T12:20:09;30.00;;;13.20;;
36009;SDS011;22076;52.182;5.404;2023-11-21T12:22:42;36.60;;;15.63;;
36009;SDS011;22076;52.182;5.404;2023-11-21T12:25:09;44.83;;;19.40;;
36009;SDS011;22076;52.182;5.404;2023-11-21T12:27:41;46.30;;;17.15;;
36009;SDS011;22076;52.182;5.404;2023-11-21T12:30:08;47.72;;;18.73;;
36009;SDS011;22076;52.182;5.404;2023-11-21T12:32:38;43.80;;;18.05;;
36009;SDS011;22076;52.182;5.404;2023-11-21T12:35:05;38.92;;;16.67;;
36009;SDS011;22076;52.182;5.404;2023-11-21T12:37:32;37.75;;;15.52;;
36009;SDS011;22076;52.182;5.404;2023-11-21T12:40:00;35.63;;;16.45;;
36009;SDS011;22076;52.182;5.404;2023-11-21T12:42:27;31.83;;;14.18;;
36009;SDS011;22076;52.182;5.404;2023-11-21T12:45:07;29.52;;;13.27;;
36009;SDS011;22076;52.182;5.404;2023-11-21T12:47:34;32.20;;;13.35;;
36009;SDS011;22076;52.182;5.404;2023-11-21T12:50:01;33.03;;;12.23;;
36009;SDS011;22076;52.182;5.404;2023-11-21T12:52:31;26.83;;;11.10;;
36009;SDS011;22076;52.182;5.404;2023-11-21T12:54:58;27.73;;;12.60;;
36009;SDS011;22076;52.182;5.404;2023-11-21T12:57:26;30.30;;;12.20;;
36009;SDS011;22076;52.182;5.404;2023-11-21T12:59:56;26.90;;;11.60;;
36009;SDS011;22076;52.182;5.404;2023-11-21T13:02:25;28.08;;;11.50;;
36009;SDS011;22076;52.182;5.404;2023-11-21T13:04:52;25.75;;;10.40;;
36009;SDS011;22076;52.182;5.404;2023-11-21T13:07:19;29.05;;;10.60;;
36009;SDS011;22076;52.182;5.404;2023-11-21T13:09:47;25.40;;;10.40;;
36009;SDS011;22076;52.182;5.404;2023-11-21T13:12:20;20.60;;;8.27;;
36009;SDS011;22076;52.182;5.404;2023-11-21T13:14:51;21.60;;;8.05;;
36009;SDS011;22076;52.182;5.404;2023-11-21T13:17:18;16.38;;;7.50;;
36009;SDS011;22076;52.182;5.404;2023-11-21T13:19:46;19.70;;;8.35;;
36009;SDS011;22076;52.182;5.404;2023-11-21T13:22:13;19.95;;;7.57;;
36009;SDS011;22076;52.182;5.404;2023-11-21T13:24:39;17.92;;;8.73;;
36009;SDS011;22076;52.182;5.404;2023-11-21T13:27:08;20.92;;;8.18;;
36009;SDS011;22076;52.182;5.404;2023-11-21T13:29:35;18.15;;;7.78;;
36009;SDS011;22076;52.182;5.404;2023-11-21T13:32:03;18.88;;;8.20;;
36009;SDS011;22076;52.182;5.404;2023-11-21T13:34:31;17.15;;;7.45;;
36009;SDS011;22076;52.182;5.404;2023-11-21T13:36:58;16.45;;;7.75;;
36009;SDS011;22076;52.182;5.404;2023-11-21T13:39:26;16.58;;;7.28;;
36009;SDS011;22076;52.182;5.404;2023-11-21T13:41:54;18.85;;;7.43;;
36009;SDS011;22076;52.182;5.404;2023-11-21T13:44:22;19.80;;;8.82;;
36009;SDS011;22076;52.182;5.404;2023-11-21T13:46:54;18.10;;;9.18;;
36009;SDS011;22076;52.182;5.404;2023-11-21T13:49:23;21.10;;;9.27;;
36009;SDS011;22076;52.182;5.404;2023-11-21T13:51:51;25.48;;;11.55;;
36009;SDS011;22076;52.182;5.404;2023-11-21T13:54:20;22.63;;;9.40;;
36009;SDS011;22076;52.182;5.404;2023-11-21T13:56:49;19.00;;;8.85;;
36009;SDS011;22076;52.182;5.404;2023-11-21T13:59:15;25.45;;;10.75;;
36009;SDS011;22076;52.182;5.404;2023-11-21T14:01:46;30.63;;;12.35;;
36009;SDS011;22076;52.182;5.404;2023-11-21T14:04:25;29.42;;;12.80;;
36009;SDS011;22076;52.182;5.404;2023-11-21T14:07:12;23.13;;;9.65;;
36009;SDS011;22076;52.182;5.404;2023-11-21T14:09:47;19.77;;;9.98;;
36009;SDS011;22076;52.182;5.404;2023-11-21T14:12:14;31.25;;;13.77;;
36009;SDS011;22076;52.182;5.404;2023-11-21T14:14:41;22.50;;;10.20;;
36009;SDS011;22076;52.182;5.404;2023-11-21T14:17:08;22.30;;;10.38;;
36009;SDS011;22076;52.182;5.404;2023-11-21T14:19:37;29.55;;;12.82;;
36009;SDS011;22076;52.182;5.404;2023-11-21T14:22:08;29.65;;;13.75;;
36009;SDS011;22076;52.182;5.404;2023-11-21T14:24:34;23.13;;;10.88;;
36009;SDS011;22076;52.182;5.404;2023-11-21T14:27:02;29.58;;;13.70;;
36009;SDS011;22076;52.182;5.404;2023-11-21T14:29:30;29.58;;;14.05;;
36009;SDS011;22076;52.182;5.404;2023-11-21T14:32:01;37.95;;;15.15;;
36009;SDS011;22076;52.182;5.404;2023-11-21T14:34:28;23.35;;;11.02;;
36009;SDS011;22076;52.182;5.404;2023-11-21T14:36:56;33.78;;;15.15;;
36009;SDS011;22076;52.182;5.404;2023-11-21T14:39:23;29.20;;;12.35;;
36009;SDS011;22076;52.182;5.404;2023-11-21T14:41:53;25.25;;;12.55;;